Terminal Aerodrome Forecast
Issued by NWS Upton, NY

Home | Current Version | Previous Version | Text Only | Print | Product List | Glossary On
Versions: 1 2 3 4 5 6 7 8 9 10 11 12 13 14 15 16 17 18 19 20 21 22 23 24 25 26 27 28 29
000
FTUS41 KOKX 220832 AAA
TAFLGA
TAF AMD
KLGA 220832Z 2209/2312 06004KT 6SM -DZ BR SCT025 OVC035
     FM221400 06005KT 5SM -DZRA BR OVC015
     FM230000 06010KT P6SM BKN015
     FM230700 15007KT 6SM -SHRA BR SCT010 OVC035
     FM231000 16012KT 3SM SHRA BR OVC007 WS020/23050KT=

USA.gov is the U.S. government's official web portal to all federal, state and local government web resources and services.